createdAt,value
2019-04-07T00:01:58.442Z,314.90
2019-04-07T00:04:28.131Z,200.80
2019-04-07T00:06:57.859Z,320.63
2019-04-07T00:09:27.629Z,360.33
2019-04-07T00:11:57.276Z,536.20
2019-04-07T00:14:27.257Z,439.07
2019-04-07T00:16:56.988Z,259.53
2019-04-07T00:19:27.160Z,152.63
2019-04-07T00:21:56.787Z,968.63
2019-04-07T00:24:26.240Z,263.60
2019-04-07T00:26:55.678Z,95.03
2019-04-07T00:29:25.181Z,47.67
2019-04-07T00:31:54.843Z,36.90
2019-04-07T00:34:24.790Z,37.30
2019-04-07T00:36:54.246Z,38.40
2019-04-07T00:39:23.778Z,30.13
2019-04-07T00:41:53.444Z,34.23
2019-04-07T00:44:23.542Z,35.77
2019-04-07T00:46:53.160Z,36.03
2019-04-07T00:49:22.660Z,35.30
2019-04-07T00:51:53.857Z,37.57
2019-04-07T00:54:23.853Z,32.87
2019-04-07T00:56:53.558Z,30.70
2019-04-07T00:59:23.272Z,34.00
2019-04-07T01:01:52.869Z,31.77
2019-04-07T01:04:22.350Z,34.13
2019-04-07T01:06:52.557Z,34.37
2019-04-07T01:09:22.373Z,35.27
2019-04-07T01:11:52.383Z,37.10
2019-04-07T01:14:22.467Z,45.40
2019-04-07T01:16:52.094Z,50.17
2019-04-07T01:19:22.670Z,37.83
2019-04-07T01:21:52.257Z,40.77
2019-04-07T01:24:21.998Z,39.97
2019-04-07T01:26:52.546Z,40.40
2019-04-07T01:29:22.203Z,39.07
2019-04-07T01:31:51.802Z,49.20
2019-04-07T01:34:21.370Z,34.23
2019-04-07T01:36:50.902Z,32.57
2019-04-07T01:39:20.636Z,39.43
2019-04-07T01:41:52.540Z,33.00
2019-04-07T01:44:23.839Z,32.87
2019-04-07T01:46:55.982Z,37.23
2019-04-07T01:49:27.304Z,153.33
2019-04-07T01:51:58.622Z,34.20
2019-04-07T01:54:29.857Z,35.27
2019-04-07T01:57:01.374Z,35.00
2019-04-07T01:59:32.650Z,31.47
2019-04-07T02:02:03.705Z,30.47
2019-04-07T02:04:34.860Z,32.87
2019-04-07T02:07:06.169Z,30.30
2019-04-07T02:09:37.824Z,31.73
2019-04-07T02:12:09.449Z,34.60
2019-04-07T02:14:41.036Z,37.53
2019-04-07T02:17:13.056Z,32.63
2019-04-07T02:19:44.894Z,27.60
2019-04-07T02:22:17.369Z,34.80
2019-04-07T02:24:48.862Z,47.20
2019-04-07T02:27:20.553Z,28.10
2019-04-07T02:29:52.154Z,28.37
2019-04-07T02:32:24.612Z,28.57
2019-04-07T02:34:55.916Z,30.67
2019-04-07T02:37:27.831Z,30.80
2019-04-07T02:39:57.139Z,29.30
2019-04-07T02:42:28.236Z,29.97
2019-04-07T02:44:59.480Z,33.77
2019-04-07T02:47:31.293Z,28.37
2019-04-07T02:50:03.380Z,32.50
2019-04-07T02:52:35.618Z,36.53
2019-04-07T02:55:09.860Z,30.37
2019-04-07T02:57:41.096Z,31.27
2019-04-07T03:00:12.583Z,29.90
2019-04-07T03:02:43.687Z,30.33
2019-04-07T03:05:15.709Z,29.87
2019-04-07T03:07:47.505Z,36.47
2019-04-07T03:10:19.139Z,34.20
2019-04-07T03:12:48.689Z,27.77
2019-04-07T03:15:19.784Z,29.47
2019-04-07T03:17:49.723Z,28.53
2019-04-07T03:20:23.117Z,32.87
2019-04-07T03:22:54.903Z,31.40
2019-04-07T03:25:26.211Z,31.63
2019-04-07T03:27:57.414Z,33.80
2019-04-07T03:30:42.272Z,36.23
2019-04-07T03:33:15.819Z,33.43
2019-04-07T03:35:50.233Z,33.97
2019-04-07T03:38:19.107Z,29.93
2019-04-07T03:40:51.614Z,35.30
2019-04-07T03:43:23.918Z,31.50
2019-04-07T03:45:55.094Z,35.63
2019-04-07T03:48:26.445Z,32.30
2019-04-07T03:50:56.848Z,39.27
2019-04-07T03:53:28.510Z,38.33
2019-04-07T03:55:59.898Z,40.50
2019-04-07T03:58:31.044Z,34.70
2019-04-07T04:01:05.250Z,293.13
2019-04-07T04:03:37.367Z,39.97
2019-04-07T04:06:09.170Z,31.83
2019-04-07T04:08:41.622Z,32.73
2019-04-07T04:11:14.146Z,32.63
2019-04-07T04:13:45.351Z,33.93
2019-04-07T04:16:14.946Z,35.37
2019-04-07T04:18:44.766Z,56.10
2019-04-07T04:21:14.282Z,57.90
2019-04-07T04:23:44.705Z,54.10
2019-04-07T04:26:15.173Z,38.03
2019-04-07T04:28:46.218Z,80.60
2019-04-07T04:31:16.196Z,30.83
2019-04-07T04:33:46.398Z,30.20
2019-04-07T04:36:16.083Z,25.17
2019-04-07T04:38:45.959Z,26.73
2019-04-07T04:41:15.552Z,28.07
2019-04-07T04:43:45.211Z,31.03
2019-04-07T04:46:15.103Z,27.67
2019-04-07T04:48:44.799Z,28.87
2019-04-07T04:51:14.221Z,33.30
2019-04-07T04:53:44.259Z,36.90
2019-04-07T04:56:14.619Z,35.10
2019-04-07T04:58:45.720Z,32.07
2019-04-07T05:01:19.082Z,37.87
2019-04-07T05:03:48.500Z,28.47
2019-04-07T05:06:20.061Z,28.10
2019-04-07T05:08:50.029Z,33.17
2019-04-07T05:11:19.758Z,32.13
2019-04-07T05:13:49.341Z,29.03
2019-04-07T05:16:19.727Z,29.57
2019-04-07T05:18:49.236Z,30.67
2019-04-07T05:21:18.838Z,27.73
2019-04-07T05:23:51.355Z,26.37
2019-04-07T05:26:21.334Z,31.10
2019-04-07T05:28:50.842Z,25.80
2019-04-07T05:31:21.067Z,31.53
2019-04-07T05:33:51.212Z,30.07
2019-04-07T05:36:21.439Z,35.03
2019-04-07T05:38:52.025Z,25.93
2019-04-07T05:41:21.877Z,29.20
2019-04-07T05:43:51.454Z,26.13
2019-04-07T05:46:20.844Z,26.47
2019-04-07T05:48:52.556Z,24.10
2019-04-07T05:51:22.086Z,23.90
2019-04-07T05:53:51.724Z,37.73
2019-04-07T05:56:21.413Z,63.43
2019-04-07T05:58:51.647Z,218.13
2019-04-07T06:01:23.403Z,159.27
2019-04-07T06:03:52.415Z,137.00
2019-04-07T06:06:22.600Z,55.80
2019-04-07T06:08:53.946Z,69.27
2019-04-07T06:11:23.527Z,165.37
2019-04-07T06:13:53.104Z,53.30
2019-04-07T06:16:22.623Z,105.00
2019-04-07T06:18:52.355Z,104.10
2019-04-07T06:21:23.414Z,240.57
2019-04-07T06:23:58.364Z,397.17
2019-04-07T06:26:24.153Z,227.10
2019-04-07T06:28:58.081Z,686.03
2019-04-07T06:31:26.309Z,436.77
2019-04-07T06:33:56.749Z,102.10
2019-04-07T06:36:26.843Z,251.47
2019-04-07T06:38:56.561Z,96.70
2019-04-07T06:41:29.511Z,40.87
2019-04-07T06:44:09.522Z,47.10
2019-04-07T06:46:30.541Z,99.03
2019-04-07T06:49:01.721Z,120.27
2019-04-07T06:51:33.473Z,34.03
2019-04-07T06:54:04.823Z,87.20
2019-04-07T06:56:36.023Z,116.17
2019-04-07T06:59:11.770Z,617.60
2019-04-07T07:01:39.918Z,580.53
2019-04-07T07:04:12.809Z,452.63
2019-04-07T07:06:46.105Z,348.27
2019-04-07T07:09:16.752Z,915.10
2019-04-07T07:11:48.525Z,598.20
2019-04-07T07:14:32.871Z,266.70
2019-04-07T07:16:52.562Z,222.77
2019-04-07T07:19:26.343Z,207.73
2019-04-07T07:21:56.813Z,155.77
2019-04-07T07:24:27.705Z,125.50
2019-04-07T07:26:58.191Z,151.77
2019-04-07T07:29:27.663Z,132.63
2019-04-07T07:32:01.929Z,145.07
2019-04-07T07:34:28.384Z,49.97
2019-04-07T07:36:58.916Z,48.50
2019-04-07T07:39:29.608Z,41.47
2019-04-07T07:41:59.389Z,62.57
2019-04-07T07:44:28.957Z,44.33
2019-04-07T07:46:58.418Z,56.27
2019-04-07T07:49:33.541Z,43.23
2019-04-07T07:52:00.329Z,53.70
2019-04-07T07:54:30.605Z,34.33
2019-04-07T07:57:00.330Z,37.00
2019-04-07T07:59:33.513Z,49.13
2019-04-07T08:02:01.334Z,35.43
2019-04-07T08:04:30.882Z,32.87
2019-04-07T08:07:02.615Z,25.20
2019-04-07T08:09:32.922Z,30.43
2019-04-07T08:12:03.591Z,34.63
2019-04-07T08:14:33.233Z,29.03
2019-04-07T08:17:03.714Z,29.40
2019-04-07T08:19:33.620Z,32.93
2019-04-07T08:22:03.141Z,27.50
2019-04-07T08:24:32.813Z,28.07
2019-04-07T08:27:04.035Z,24.47
2019-04-07T08:29:37.105Z,26.03
2019-04-07T08:32:05.438Z,30.50
2019-04-07T08:34:36.095Z,25.67
2019-04-07T08:37:05.974Z,23.77
2019-04-07T08:39:36.527Z,25.90
2019-04-07T08:42:10.696Z,34.07
2019-04-07T08:44:38.124Z,27.47
2019-04-07T08:47:11.434Z,29.37
2019-04-07T08:49:38.770Z,26.23
2019-04-07T08:52:10.987Z,25.50
2019-04-07T08:54:39.373Z,29.07
2019-04-07T08:57:09.611Z,24.87
2019-04-07T08:59:42.406Z,25.53
2019-04-07T09:02:10.337Z,21.40
2019-04-07T09:04:39.921Z,25.57
2019-04-07T09:07:10.263Z,28.93
2019-04-07T09:09:47.169Z,21.77
2019-04-07T09:12:12.172Z,22.87
2019-04-07T09:14:44.069Z,44.67
2019-04-07T09:17:15.291Z,44.70
2019-04-07T09:19:46.930Z,35.83
2019-04-07T09:22:22.139Z,23.07
2019-04-07T09:24:51.047Z,26.43
2019-04-07T09:27:23.457Z,22.93
2019-04-07T09:30:05.988Z,20.90
2019-04-07T09:32:36.415Z,22.93
2019-04-07T09:35:08.087Z,28.30
2019-04-07T09:37:39.831Z,23.50
2019-04-07T09:40:15.639Z,24.77
2019-04-07T09:42:44.775Z,21.60
2019-04-07T09:45:17.376Z,24.53
2019-04-07T09:47:49.618Z,23.53
2019-04-07T09:50:20.691Z,21.37
2019-04-07T09:55:35.609Z,24.53
2019-04-07T09:58:09.271Z,22.13
2019-04-07T10:00:39.892Z,23.30
2019-04-07T10:03:24.241Z,26.53
2019-04-07T10:05:55.367Z,22.13
2019-04-07T10:08:24.917Z,22.00
2019-04-07T10:10:54.833Z,24.60
2019-04-07T10:13:25.988Z,22.30
2019-04-07T10:15:57.419Z,23.33
2019-04-07T10:18:28.618Z,24.50
2019-04-07T10:21:00.984Z,19.80
2019-04-07T10:23:32.703Z,23.67
2019-04-07T10:26:04.124Z,22.30
2019-04-07T10:28:36.668Z,23.27
2019-04-07T10:31:08.002Z,23.37
2019-04-07T10:33:39.020Z,24.40
2019-04-07T10:36:11.285Z,18.67
2019-04-07T10:38:45.066Z,18.70
2019-04-07T10:41:17.167Z,33.00
2019-04-07T10:43:48.357Z,23.03
2019-04-07T10:46:20.337Z,19.40
2019-04-07T10:48:51.909Z,21.87
2019-04-07T10:51:23.088Z,21.50
2019-04-07T10:53:54.246Z,20.10
2019-04-07T10:56:25.523Z,20.20
2019-04-07T10:58:58.187Z,22.10
2019-04-07T11:01:30.027Z,21.50
2019-04-07T11:04:01.120Z,20.47
2019-04-07T11:06:33.881Z,23.17
2019-04-07T11:09:06.582Z,23.10
2019-04-07T11:11:37.874Z,21.60
2019-04-07T11:14:09.740Z,19.40
2019-04-07T11:16:40.888Z,23.30
2019-04-07T11:19:12.864Z,21.57
2019-04-07T11:21:44.133Z,19.83
2019-04-07T11:24:17.566Z,17.77
2019-04-07T11:26:48.910Z,20.33
2019-04-07T11:29:20.402Z,23.25
2019-04-07T11:31:51.670Z,21.80
2019-04-07T11:34:22.794Z,20.57
2019-04-07T11:36:54.484Z,20.60
2019-04-07T11:39:26.358Z,19.75
2019-04-07T11:41:57.547Z,23.73
2019-04-07T11:44:29.300Z,24.67
2019-04-07T11:47:00.584Z,21.90
2019-04-07T11:49:31.863Z,20.48
2019-04-07T11:52:03.667Z,18.85
2019-04-07T11:54:35.601Z,22.42
2019-04-07T11:57:06.999Z,21.52
2019-04-07T11:59:39.390Z,22.40
2019-04-07T12:02:09.025Z,21.00
2019-04-07T12:04:40.421Z,17.95
2019-04-07T12:07:10.028Z,19.57
2019-04-07T12:09:41.282Z,21.80
2019-04-07T12:12:12.640Z,37.73
2019-04-07T12:14:47.170Z,23.32
2019-04-07T12:17:15.109Z,24.03
2019-04-07T12:19:46.325Z,22.85
2019-04-07T12:22:18.298Z,28.10
2019-04-07T12:24:50.187Z,24.07
2019-04-07T12:27:22.398Z,21.55
2019-04-07T12:29:53.682Z,21.33
2019-04-07T12:32:24.978Z,19.57
2019-04-07T12:34:56.648Z,23.20
2019-04-07T12:37:28.420Z,22.58
2019-04-07T12:39:59.915Z,19.57
2019-04-07T12:42:29.917Z,21.60
2019-04-07T12:45:01.793Z,20.48
2019-04-07T12:47:34.375Z,20.43
2019-04-07T12:50:08.249Z,21.60
2019-04-07T12:52:39.317Z,22.45
2019-04-07T12:55:11.946Z,21.48
2019-04-07T12:57:43.541Z,19.82
2019-04-07T13:00:15.684Z,19.42
2019-04-07T13:02:47.590Z,21.60
2019-04-07T13:05:19.657Z,21.07
2019-04-07T13:07:52.348Z,20.65
2019-04-07T13:10:23.701Z,22.07
2019-04-07T13:12:57.171Z,27.37
2019-04-07T13:15:29.929Z,21.75
2019-04-07T13:18:03.648Z,24.40
2019-04-07T13:20:33.327Z,23.42
2019-04-07T13:23:04.888Z,22.15
2019-04-07T13:25:36.420Z,23.97
2019-04-07T13:28:08.257Z,22.25
2019-04-07T13:30:39.593Z,21.33
2019-04-07T13:33:11.381Z,21.55
2019-04-07T13:35:42.480Z,20.82
2019-04-07T13:38:13.673Z,23.47
2019-04-07T13:40:46.976Z,23.40
2019-04-07T13:43:17.653Z,20.68
2019-04-07T13:45:49.442Z,19.93
2019-04-07T13:48:20.914Z,21.15
2019-04-07T13:50:52.526Z,19.77
2019-04-07T13:53:26.978Z,21.15
2019-04-07T13:55:57.245Z,22.77
2019-04-07T13:58:31.017Z,22.00
2019-04-07T14:01:21.322Z,23.80
2019-04-07T14:03:52.196Z,21.27
2019-04-07T14:06:23.725Z,24.23
2019-04-07T14:08:57.236Z,22.22
2019-04-07T14:11:28.442Z,25.45
2019-04-07T14:14:00.192Z,24.10
2019-04-07T14:16:31.314Z,20.00
2019-04-07T14:19:03.641Z,19.07
2019-04-07T14:21:34.945Z,18.57
2019-04-07T14:24:08.104Z,21.45
2019-04-07T14:26:41.255Z,19.48
2019-04-07T14:29:14.098Z,19.40
2019-04-07T14:31:45.512Z,21.30
2019-04-07T14:34:17.123Z,19.00
2019-04-07T14:36:48.163Z,19.73
2019-04-07T14:39:20.583Z,19.67
2019-04-07T14:42:00.973Z,19.32
2019-04-07T14:44:24.735Z,16.48
2019-04-07T14:46:55.882Z,19.47
2019-04-07T14:49:28.652Z,18.95
2019-04-07T14:52:02.532Z,18.32
2019-04-07T14:54:34.586Z,17.30
2019-04-07T14:57:08.150Z,18.77
2019-04-07T14:59:39.469Z,18.02
2019-04-07T15:02:11.594Z,18.32
2019-04-07T15:04:43.093Z,16.27
2019-04-07T15:07:14.369Z,17.42
2019-04-07T15:09:45.880Z,17.12
2019-04-07T15:12:22.770Z,18.50
2019-04-07T15:14:49.102Z,17.40
2019-04-07T15:17:18.799Z,17.42
2019-04-07T15:19:48.524Z,16.32
2019-04-07T15:22:18.496Z,17.40
2019-04-07T15:24:49.562Z,20.62
2019-04-07T15:27:24.269Z,18.57
2019-04-07T15:29:51.632Z,18.37
2019-04-07T15:32:26.770Z,21.55
2019-04-07T15:34:54.648Z,17.50
2019-04-07T15:37:25.104Z,19.10
2019-04-07T15:39:54.620Z,18.52
2019-04-07T15:42:35.225Z,19.33
2019-04-07T15:44:55.345Z,20.40
2019-04-07T15:47:25.454Z,17.77
2019-04-07T15:49:57.772Z,45.73
2019-04-07T15:52:26.356Z,58.02
2019-04-07T15:54:56.298Z,61.98
2019-04-07T15:57:25.888Z,32.40
2019-04-07T15:59:56.139Z,23.50
2019-04-07T16:02:25.831Z,17.27
2019-04-07T16:04:59.952Z,16.10
2019-04-07T16:07:28.380Z,19.87
2019-04-07T16:09:58.267Z,19.13
2019-04-07T16:12:28.688Z,18.83
2019-04-07T16:14:58.198Z,18.87
2019-04-07T16:17:27.709Z,22.43
2019-04-07T16:19:57.329Z,22.40
2019-04-07T16:22:27.729Z,17.65
2019-04-07T16:24:58.410Z,18.05
2019-04-07T16:27:29.333Z,29.97
2019-04-07T16:29:58.906Z,38.67
2019-04-07T16:32:30.897Z,59.25
2019-04-07T16:35:00.638Z,52.88
2019-04-07T16:37:32.019Z,44.77
2019-04-07T16:40:06.790Z,31.03
2019-04-07T16:42:33.123Z,26.03
2019-04-07T16:45:02.706Z,26.43
2019-04-07T16:47:34.707Z,25.52
2019-04-07T16:50:03.784Z,20.43
2019-04-07T16:52:34.118Z,24.57
2019-04-07T16:55:07.962Z,20.85
2019-04-07T16:57:37.626Z,55.63
2019-04-07T17:00:12.685Z,24.85
2019-04-07T17:02:41.530Z,38.77
2019-04-07T17:05:12.047Z,24.90
2019-04-07T17:07:44.399Z,28.47
2019-04-07T17:10:13.327Z,28.23
2019-04-07T17:12:43.908Z,16.73
2019-04-07T17:15:13.665Z,18.00
2019-04-07T17:17:43.467Z,22.13
2019-04-07T17:20:14.673Z,24.00
2019-04-07T17:22:47.639Z,23.50
2019-04-07T17:25:15.800Z,29.43
2019-04-07T17:27:45.390Z,23.30
2019-04-07T17:30:18.264Z,34.33
2019-04-07T17:32:50.052Z,49.17
2019-04-07T17:35:21.249Z,87.27
2019-04-07T17:37:51.385Z,240.70
2019-04-07T17:40:22.703Z,377.90
2019-04-07T17:42:53.983Z,935.10
2019-04-07T17:45:25.186Z,1227.10
2019-04-07T17:47:55.011Z,1186.33
2019-04-07T17:50:30.399Z,800.93
2019-04-07T17:52:59.326Z,148.50
2019-04-07T17:55:30.504Z,1448.87
2019-04-07T17:58:01.701Z,610.53
2019-04-07T18:00:34.221Z,142.97
2019-04-07T18:03:08.891Z,63.47
2019-04-07T18:05:38.734Z,36.47
2019-04-07T18:08:13.049Z,126.97
2019-04-07T18:10:43.299Z,64.73
2019-04-07T18:13:16.617Z,76.37
2019-04-07T18:15:45.623Z,57.27
2019-04-07T18:18:23.271Z,268.43
2019-04-07T18:20:48.437Z,129.20
2019-04-07T18:23:21.372Z,231.93
2019-04-07T18:25:53.208Z,256.90
2019-04-07T18:28:26.031Z,788.17
2019-04-07T18:30:57.412Z,874.67
2019-04-07T18:33:29.613Z,657.63
2019-04-07T18:36:03.284Z,587.73
2019-04-07T18:38:34.267Z,320.07
2019-04-07T18:41:10.090Z,257.90
2019-04-07T18:43:49.163Z,297.13
2019-04-07T18:46:11.873Z,196.00
2019-04-07T18:48:42.960Z,182.77
2019-04-07T18:51:14.804Z,66.07
2019-04-07T18:53:46.378Z,54.50
2019-04-07T18:56:19.996Z,49.67
2019-04-07T18:58:52.506Z,37.90
2019-04-07T19:01:23.034Z,26.63
2019-04-07T19:03:54.894Z,79.90
2019-04-07T19:06:26.244Z,101.97
2019-04-07T19:09:00.043Z,181.70
2019-04-07T19:11:30.847Z,26.83
2019-04-07T19:14:24.620Z,19.77
2019-04-07T19:16:34.754Z,20.53
2019-04-07T19:19:05.920Z,22.13
2019-04-07T19:21:38.789Z,33.83
2019-04-07T19:24:10.726Z,33.93
2019-04-07T19:26:42.710Z,47.60
2019-04-07T19:29:14.146Z,57.27
2019-04-07T19:31:48.109Z,62.87
2019-04-07T19:34:18.461Z,57.73
2019-04-07T19:36:49.931Z,61.17
2019-04-07T19:39:23.514Z,62.20
2019-04-07T19:41:53.977Z,65.13
2019-04-07T19:44:34.845Z,63.37
2019-04-07T19:46:58.681Z,117.27
2019-04-07T19:49:28.686Z,82.90
2019-04-07T19:52:03.281Z,224.43
2019-04-07T19:54:32.605Z,426.07
2019-04-07T19:57:04.685Z,109.67
2019-04-07T19:59:39.248Z,81.53
2019-04-07T20:02:07.529Z,67.97
2019-04-07T20:04:40.170Z,149.63
2019-04-07T20:07:11.598Z,101.23
2019-04-07T20:09:45.745Z,166.47
2019-04-07T20:12:13.650Z,291.37
2019-04-07T20:14:51.502Z,882.53
2019-04-07T20:17:22.454Z,757.77
2019-04-07T20:19:51.391Z,585.93
2019-04-07T20:22:24.695Z,474.60
2019-04-07T20:24:55.448Z,256.40
2019-04-07T20:27:28.540Z,220.60
2019-04-07T20:30:00.424Z,136.23
2019-04-07T20:32:33.791Z,136.43
2019-04-07T20:35:05.968Z,340.70
2019-04-07T20:37:37.978Z,795.03
2019-04-07T20:40:09.817Z,1093.50
2019-04-07T20:42:46.362Z,542.97
2019-04-07T20:45:19.230Z,242.40
2019-04-07T20:47:47.765Z,193.00
2019-04-07T20:50:17.083Z,206.07
2019-04-07T20:52:48.229Z,190.30
2019-04-07T20:55:21.178Z,118.17
2019-04-07T20:57:56.459Z,219.70
2019-04-07T21:00:23.398Z,137.00
2019-04-07T21:03:09.114Z,73.70
2019-04-07T21:05:29.206Z,47.97
2019-04-07T21:08:01.051Z,51.33
2019-04-07T21:10:43.495Z,43.93
2019-04-07T21:13:16.730Z,179.53
2019-04-07T21:15:47.774Z,116.20
2019-04-07T21:18:18.943Z,95.43
2019-04-07T21:20:51.033Z,78.93
2019-04-07T21:23:22.142Z,44.87
2019-04-07T21:25:55.846Z,63.87
2019-04-07T21:28:26.802Z,75.90
2019-04-07T21:30:58.091Z,32.63
2019-04-07T21:33:29.460Z,39.50
2019-04-07T21:36:01.135Z,58.07
2019-04-07T21:38:32.739Z,310.33
2019-04-07T21:41:04.601Z,315.93
2019-04-07T21:43:36.113Z,335.93
2019-04-07T21:46:07.952Z,272.13
2019-04-07T21:48:39.237Z,81.13
2019-04-07T21:51:13.464Z,220.50
2019-04-07T21:53:43.198Z,87.07
2019-04-07T21:56:15.410Z,69.50
2019-04-07T21:58:47.507Z,195.77
2019-04-07T22:01:18.834Z,233.20
2019-04-07T22:03:50.005Z,273.70
2019-04-07T22:06:21.906Z,241.50
2019-04-07T22:08:53.955Z,306.70
2019-04-07T22:11:26.725Z,152.40
2019-04-07T22:13:55.374Z,119.30
2019-04-07T22:16:25.585Z,126.07
2019-04-07T22:18:56.912Z,94.60
2019-04-07T22:21:26.571Z,93.30
2019-04-07T22:23:56.240Z,50.67
2019-04-07T22:26:26.381Z,58.33
2019-04-07T22:28:56.948Z,56.40
2019-04-07T22:31:29.024Z,68.67
2019-04-07T22:34:01.013Z,149.80
2019-04-07T22:36:29.997Z,207.30
2019-04-07T22:39:02.014Z,160.30
2019-04-07T22:41:32.184Z,63.27
2019-04-07T22:44:01.651Z,48.40
2019-04-07T22:46:31.143Z,211.37
2019-04-07T22:49:00.938Z,200.97
2019-04-07T22:51:30.713Z,72.77
2019-04-07T22:54:00.387Z,126.57
2019-04-07T22:56:29.910Z,121.10
2019-04-07T22:59:00.279Z,67.77
2019-04-07T23:01:29.948Z,57.67
2019-04-07T23:04:12.389Z,77.80
2019-04-07T23:06:42.534Z,357.40
2019-04-07T23:09:13.358Z,100.03
2019-04-07T23:11:44.013Z,73.23
2019-04-07T23:14:13.732Z,35.40
2019-04-07T23:16:43.290Z,51.07
2019-04-07T23:19:12.807Z,63.17
2019-04-07T23:21:42.275Z,40.53
2019-04-07T23:24:12.855Z,51.73
2019-04-07T23:26:42.620Z,328.33
2019-04-07T23:29:12.188Z,593.80
2019-04-07T23:31:41.714Z,374.53
2019-04-07T23:34:11.247Z,142.63
2019-04-07T23:36:40.769Z,70.17
2019-04-07T23:39:11.119Z,51.63
2019-04-07T23:41:41.407Z,64.47
2019-04-07T23:44:12.884Z,72.47
2019-04-07T23:46:43.474Z,40.83
2019-04-07T23:49:13.197Z,52.20
2019-04-07T23:51:43.418Z,63.27
2019-04-07T23:54:14.497Z,52.63
2019-04-07T23:56:44.663Z,40.87
2019-04-07T23:59:15.059Z,42.90
